createdAt,value
2018-11-06T00:01:56.897Z,125.80
2018-11-06T00:04:31.128Z,124.23
2018-11-06T00:07:00.254Z,113.07
2018-11-06T00:09:30.042Z,121.47
2018-11-06T00:11:59.385Z,116.83
2018-11-06T00:14:28.584Z,120.77
2018-11-06T00:16:58.020Z,123.47
2018-11-06T00:19:28.695Z,115.67
2018-11-06T00:21:57.949Z,117.77
2018-11-06T00:24:27.038Z,120.17
2018-11-06T00:26:56.315Z,120.83
2018-11-06T00:29:25.378Z,135.20
2018-11-06T00:31:54.551Z,119.40
2018-11-06T00:34:24.036Z,119.00
2018-11-06T00:36:52.840Z,121.47
2018-11-06T00:39:21.895Z,122.83
2018-11-06T00:41:51.012Z,117.93
2018-11-06T00:44:20.060Z,119.47
2018-11-06T00:46:49.191Z,129.57
2018-11-06T00:49:18.342Z,130.30
2018-11-06T00:51:47.514Z,120.83
2018-11-06T00:54:17.563Z,125.67
2018-11-06T00:56:48.114Z,126.90
2018-11-06T00:59:18.791Z,131.23
2018-11-06T01:01:48.439Z,127.73
2018-11-06T01:04:17.516Z,128.07
2018-11-06T01:06:47.307Z,133.80
2018-11-06T01:09:16.987Z,115.53
2018-11-06T01:11:46.108Z,117.60
2018-11-06T01:14:15.261Z,112.07
2018-11-06T01:16:44.503Z,121.87
2018-11-06T01:19:13.711Z,112.17
2018-11-06T01:21:42.754Z,114.17
2018-11-06T01:24:11.987Z,115.23
2018-11-06T01:26:42.284Z,110.50
2018-11-06T01:29:11.574Z,122.33
2018-11-06T01:31:42.699Z,119.03
2018-11-06T01:34:12.665Z,118.53
2018-11-06T01:36:41.934Z,115.67
2018-11-06T01:39:11.579Z,119.43
2018-11-06T01:41:41.953Z,123.83
2018-11-06T01:44:11.026Z,104.40
2018-11-06T01:46:40.109Z,114.73
2018-11-06T01:49:09.198Z,125.10
2018-11-06T01:51:38.302Z,109.27
2018-11-06T01:54:08.502Z,121.20
2018-11-06T01:56:39.408Z,103.60
2018-11-06T01:59:11.743Z,125.03
2018-11-06T02:01:42.187Z,128.20
2018-11-06T02:04:11.329Z,123.93
2018-11-06T02:19:40.067Z,120.73
2018-11-06T02:22:09.366Z,108.30
2018-11-06T02:24:38.463Z,115.37
2018-11-06T02:27:07.600Z,125.77
2018-11-06T02:29:36.712Z,112.80
2018-11-06T02:32:07.994Z,110.87
2018-11-06T02:34:37.426Z,100.90
2018-11-06T02:37:07.814Z,112.50
2018-11-06T02:39:37.255Z,104.70
2018-11-06T02:42:06.547Z,106.67
2018-11-06T02:44:36.143Z,97.87
2018-11-06T02:47:06.870Z,104.53
2018-11-06T02:49:36.269Z,102.23
2018-11-06T02:52:06.932Z,97.47
2018-11-06T02:54:37.047Z,93.23
2018-11-06T02:57:07.061Z,100.33
2018-11-06T02:59:37.606Z,104.00
2018-11-06T03:02:07.730Z,98.60
2018-11-06T03:04:37.024Z,96.50
2018-11-06T03:07:06.444Z,93.07
2018-11-06T03:09:35.661Z,97.00
2018-11-06T03:12:04.899Z,88.30
2018-11-06T03:14:34.220Z,89.10
2018-11-06T03:17:03.967Z,92.00
2018-11-06T03:19:33.268Z,90.23
2018-11-06T03:22:02.667Z,82.43
2018-11-06T03:24:32.245Z,88.03
2018-11-06T03:27:01.732Z,90.33
2018-11-06T03:29:31.023Z,85.30
2018-11-06T03:32:00.530Z,83.30
2018-11-06T03:34:31.143Z,86.70
2018-11-06T03:37:01.082Z,75.10
2018-11-06T03:39:31.096Z,79.27
2018-11-06T03:42:00.804Z,83.33
2018-11-06T03:44:31.335Z,88.60
2018-11-06T03:47:01.631Z,85.93
2018-11-06T03:49:30.825Z,86.13
2018-11-06T03:52:00.108Z,78.43
2018-11-06T03:54:30.015Z,83.10
2018-11-06T03:56:59.393Z,85.90
2018-11-06T03:59:28.907Z,84.93
2018-11-06T04:01:58.809Z,87.13
2018-11-06T04:04:28.024Z,87.47
2018-11-06T04:06:57.959Z,81.33
2018-11-06T04:09:27.100Z,76.63
2018-11-06T04:11:56.074Z,89.60
2018-11-06T04:14:25.029Z,76.33
2018-11-06T04:16:54.133Z,82.10
2018-11-06T04:19:23.378Z,82.17
2018-11-06T04:21:53.215Z,75.53
2018-11-06T04:24:22.365Z,74.33
2018-11-06T04:26:51.671Z,72.37
2018-11-06T04:29:20.757Z,77.57
2018-11-06T04:31:49.890Z,74.37
2018-11-06T04:34:19.056Z,77.97
2018-11-06T04:36:48.194Z,78.53
2018-11-06T04:39:17.218Z,84.17
2018-11-06T04:41:46.348Z,75.47
2018-11-06T04:44:15.538Z,76.40
2018-11-06T04:46:44.626Z,73.70
2018-11-06T04:49:13.854Z,75.13
2018-11-06T04:51:42.892Z,78.30
2018-11-06T04:54:12.033Z,77.07
2018-11-06T04:56:41.239Z,75.77
2018-11-06T04:59:10.569Z,80.73
2018-11-06T05:01:39.927Z,74.30
2018-11-06T05:04:09.968Z,62.53
2018-11-06T05:06:40.493Z,76.70
2018-11-06T05:09:10.809Z,69.37
2018-11-06T05:11:39.869Z,84.37
2018-11-06T05:14:10.002Z,77.93
2018-11-06T05:16:40.093Z,86.90
2018-11-06T05:19:09.305Z,81.70
2018-11-06T05:21:38.472Z,88.57
2018-11-06T05:24:07.932Z,84.33
2018-11-06T05:26:38.842Z,89.37
2018-11-06T05:29:16.539Z,75.90
2018-11-06T05:31:45.764Z,81.77
2018-11-06T05:34:15.374Z,78.53
2018-11-06T05:36:44.925Z,74.77
2018-11-06T05:39:16.602Z,69.00
2018-11-06T05:41:46.167Z,77.53
2018-11-06T05:44:16.823Z,80.67
2018-11-06T05:46:49.396Z,78.13
2018-11-06T05:49:22.727Z,81.30
2018-11-06T05:51:53.395Z,73.23
2018-11-06T05:54:22.657Z,81.77
2018-11-06T05:56:52.080Z,81.93
2018-11-06T05:59:21.862Z,93.50
2018-11-06T06:01:51.060Z,90.30
2018-11-06T06:04:20.461Z,85.90
2018-11-06T06:06:52.006Z,77.97
2018-11-06T06:09:21.313Z,80.47
2018-11-06T06:11:50.544Z,86.57
2018-11-06T06:14:20.633Z,73.47
2018-11-06T06:16:49.710Z,86.27
2018-11-06T06:19:30.552Z,70.53
2018-11-06T06:22:07.493Z,83.20
2018-11-06T06:24:41.331Z,83.07
2018-11-06T06:27:13.235Z,84.90
2018-11-06T06:29:42.574Z,81.60
2018-11-06T06:32:11.730Z,77.80
2018-11-06T06:34:41.948Z,83.03
2018-11-06T06:37:11.279Z,76.80
2018-11-06T06:39:42.086Z,69.50
2018-11-06T06:42:12.320Z,71.80
2018-11-06T06:44:41.501Z,66.67
2018-11-06T06:47:10.901Z,64.13
2018-11-06T06:49:40.352Z,74.67
2018-11-06T06:52:09.956Z,65.67
2018-11-06T06:54:39.429Z,65.20
2018-11-06T06:57:08.485Z,63.63
2018-11-06T06:59:38.037Z,70.00
2018-11-06T07:02:07.231Z,62.77
2018-11-06T07:04:36.701Z,68.60
2018-11-06T07:07:06.805Z,68.03
2018-11-06T07:09:38.060Z,73.87
2018-11-06T07:12:09.666Z,58.53
2018-11-06T07:14:40.547Z,74.87
2018-11-06T07:17:39.117Z,81.60
2018-11-06T07:20:43.752Z,79.17
2018-11-06T07:23:13.081Z,66.83
2018-11-06T07:25:44.656Z,54.07
2018-11-06T07:28:15.499Z,56.23
2018-11-06T07:30:50.116Z,54.30
2018-11-06T07:33:24.420Z,53.53
2018-11-06T07:36:04.236Z,53.07
2018-11-06T07:38:33.625Z,47.70
2018-11-06T07:41:02.859Z,44.47
2018-11-06T07:43:32.896Z,45.27
2018-11-06T07:46:02.702Z,49.67
2018-11-06T07:48:32.767Z,49.13
2018-11-06T07:51:02.676Z,49.93
2018-11-06T07:53:49.613Z,46.83
2018-11-06T07:56:22.278Z,50.53
2018-11-06T07:58:55.777Z,47.07
2018-11-06T08:01:33.387Z,51.23
2018-11-06T08:04:03.022Z,43.37
2018-11-06T08:06:32.942Z,50.33
2018-11-06T08:09:19.252Z,49.10
2018-11-06T08:12:04.461Z,43.80
2018-11-06T08:14:55.758Z,53.97
2018-11-06T08:17:25.126Z,45.07
2018-11-06T08:19:54.471Z,51.60
2018-11-06T08:22:23.830Z,53.23
2018-11-06T08:24:52.992Z,47.80
2018-11-06T08:27:22.119Z,48.37
2018-11-06T08:29:51.180Z,46.40
2018-11-06T08:32:21.033Z,42.40
2018-11-06T08:34:50.592Z,41.37
2018-11-06T08:37:19.742Z,43.40
2018-11-06T08:39:49.566Z,49.80
2018-11-06T08:42:19.552Z,47.63
2018-11-06T08:44:48.728Z,44.90
2018-11-06T08:47:18.822Z,46.00
2018-11-06T08:49:48.185Z,44.43
2018-11-06T08:52:17.795Z,41.87
2018-11-06T08:54:46.872Z,44.77
2018-11-06T08:57:15.978Z,41.67
2018-11-06T08:59:44.949Z,38.77
2018-11-06T09:02:14.118Z,46.07
2018-11-06T09:04:43.756Z,39.53
2018-11-06T09:07:13.642Z,45.50
2018-11-06T09:09:42.919Z,39.17
2018-11-06T09:12:12.037Z,43.37
2018-11-06T09:14:41.179Z,36.60
2018-11-06T09:17:10.446Z,40.93
2018-11-06T09:19:39.516Z,40.73
2018-11-06T09:22:08.856Z,42.03
2018-11-06T09:24:37.994Z,38.23
2018-11-06T09:27:07.020Z,45.47
2018-11-06T09:29:36.117Z,35.73
2018-11-06T09:32:05.916Z,37.20
2018-11-06T09:34:35.199Z,45.07
2018-11-06T09:37:04.245Z,40.27
2018-11-06T09:39:34.429Z,36.90
2018-11-06T09:42:04.757Z,39.37
2018-11-06T09:44:34.195Z,35.83
2018-11-06T09:47:03.203Z,40.87
2018-11-06T09:49:32.292Z,36.27
2018-11-06T09:52:01.382Z,42.40
2018-11-06T09:54:30.420Z,39.30
2018-11-06T09:56:59.348Z,36.70
2018-11-06T09:59:28.520Z,36.20
2018-11-06T10:01:57.491Z,34.63
2018-11-06T10:04:26.679Z,36.40
2018-11-06T10:06:56.660Z,36.67
2018-11-06T10:09:25.238Z,37.77
2018-11-06T10:11:54.408Z,32.47
2018-11-06T10:14:23.461Z,35.83
2018-11-06T10:16:52.526Z,40.43
2018-11-06T10:19:21.534Z,37.67
2018-11-06T10:21:50.425Z,34.43
2018-11-06T10:24:20.719Z,30.37
2018-11-06T10:26:50.120Z,29.37
2018-11-06T10:29:19.030Z,33.90
2018-11-06T10:31:47.900Z,33.93
2018-11-06T10:34:17.659Z,31.73
2018-11-06T10:36:47.369Z,34.30
2018-11-06T10:39:16.719Z,28.27
2018-11-06T10:41:45.639Z,37.87
2018-11-06T10:44:14.554Z,29.37
2018-11-06T10:46:44.390Z,30.37
2018-11-06T10:49:14.352Z,30.33
2018-11-06T10:51:43.483Z,29.27
2018-11-06T10:54:13.129Z,31.73
2018-11-06T10:56:42.141Z,31.33
2018-11-06T10:59:11.255Z,32.73
2018-11-06T11:01:45.991Z,28.17
2018-11-06T11:04:21.164Z,31.40
2018-11-06T11:06:50.112Z,33.17
2018-11-06T11:09:19.010Z,30.53
2018-11-06T11:11:48.381Z,28.00
2018-11-06T11:14:17.460Z,25.43
2018-11-06T11:16:46.492Z,27.73
2018-11-06T11:19:15.660Z,29.90
2018-11-06T11:21:45.076Z,38.67
2018-11-06T11:24:14.440Z,23.60
2018-11-06T11:26:43.690Z,29.13
2018-11-06T11:29:12.678Z,27.23
2018-11-06T11:31:42.192Z,27.03
2018-11-06T11:34:11.712Z,28.17
2018-11-06T11:36:41.620Z,30.23
2018-11-06T11:39:10.942Z,34.43
2018-11-06T11:41:40.273Z,32.97
2018-11-06T11:44:09.758Z,28.93
2018-11-06T11:46:38.656Z,27.00
2018-11-06T11:49:07.617Z,27.67
2018-11-06T11:51:36.469Z,27.50
2018-11-06T11:54:06.025Z,26.07
2018-11-06T11:56:34.917Z,23.60
2018-11-06T11:59:03.821Z,26.57
2018-11-06T12:01:32.718Z,29.30
2018-11-06T12:04:01.631Z,23.13
2018-11-06T12:06:30.543Z,30.63
2018-11-06T12:08:59.471Z,24.70
2018-11-06T12:11:28.822Z,23.90
2018-11-06T12:13:57.763Z,27.23
2018-11-06T12:16:26.599Z,23.50
2018-11-06T12:18:56.622Z,27.53
2018-11-06T12:21:25.485Z,25.83
2018-11-06T12:23:54.997Z,27.77
2018-11-06T12:26:23.934Z,32.77
2018-11-06T12:28:53.202Z,26.80
2018-11-06T12:31:22.212Z,21.97
2018-11-06T12:33:51.973Z,25.87
2018-11-06T12:36:21.219Z,27.17
2018-11-06T12:38:50.178Z,24.43
2018-11-06T12:41:19.065Z,23.87
2018-11-06T12:43:48.872Z,28.77
2018-11-06T12:46:17.815Z,26.90
2018-11-06T12:48:47.037Z,24.13
2018-11-06T12:51:15.932Z,24.00
2018-11-06T12:53:45.711Z,24.03
2018-11-06T12:56:14.695Z,22.13
2018-11-06T12:58:44.368Z,20.83
2018-11-06T13:01:13.264Z,22.17
2018-11-06T13:03:42.345Z,24.63
2018-11-06T13:06:11.205Z,26.70
2018-11-06T13:08:41.061Z,25.97
2018-11-06T13:11:09.976Z,23.27
2018-11-06T13:13:38.863Z,22.90
2018-11-06T13:16:08.402Z,22.63
2018-11-06T13:18:37.297Z,24.80
2018-11-06T13:21:06.156Z,22.90
2018-11-06T13:23:35.044Z,24.23
2018-11-06T13:26:03.997Z,26.10
2018-11-06T13:28:32.913Z,18.97
2018-11-06T13:31:01.923Z,23.70
2018-11-06T13:33:30.794Z,23.13
2018-11-06T13:35:59.611Z,21.40
2018-11-06T13:38:28.503Z,22.43
2018-11-06T13:40:57.366Z,21.70
2018-11-06T13:43:26.271Z,25.70
2018-11-06T13:45:55.022Z,21.13
2018-11-06T13:48:23.962Z,24.63
2018-11-06T13:50:53.061Z,22.40
2018-11-06T13:53:21.980Z,22.63
2018-11-06T13:55:51.812Z,21.00
2018-11-06T13:58:21.339Z,25.93
2018-11-06T14:00:50.880Z,21.10
2018-11-06T14:03:20.812Z,21.67
2018-11-06T14:05:49.898Z,27.17
2018-11-06T14:08:19.161Z,23.93
2018-11-06T14:10:48.137Z,25.77
2018-11-06T14:13:17.030Z,17.73
2018-11-06T14:15:45.913Z,21.63
2018-11-06T14:18:14.852Z,19.40
2018-11-06T14:20:44.067Z,25.07
2018-11-06T14:23:13.061Z,22.60
2018-11-06T14:25:42.010Z,18.33
2018-11-06T14:28:10.912Z,20.27
2018-11-06T14:30:40.111Z,22.53
2018-11-06T14:33:09.260Z,18.53
2018-11-06T14:35:38.188Z,18.07
2018-11-06T14:38:07.009Z,22.70
2018-11-06T14:40:36.272Z,22.00
2018-11-06T14:43:05.226Z,18.93
2018-11-06T14:45:34.200Z,22.03
2018-11-06T14:48:03.809Z,20.60
2018-11-06T14:50:32.692Z,19.60
2018-11-06T14:53:02.246Z,22.20
2018-11-06T14:55:31.191Z,20.33
2018-11-06T14:58:00.343Z,26.73
2018-11-06T15:00:29.184Z,22.90
2018-11-06T15:02:58.657Z,24.87
2018-11-06T15:05:28.284Z,24.50
2018-11-06T15:07:57.647Z,19.90
2018-11-06T15:10:26.682Z,19.80
2018-11-06T15:12:55.890Z,17.77
2018-11-06T15:15:24.767Z,23.83
2018-11-06T15:17:53.694Z,21.87
2018-11-06T15:20:23.643Z,23.23
2018-11-06T15:22:52.629Z,21.03
2018-11-06T15:25:22.248Z,17.60
2018-11-06T15:27:51.218Z,21.97
2018-11-06T15:30:21.085Z,23.53
2018-11-06T15:32:50.780Z,23.87
2018-11-06T15:35:20.846Z,21.60
2018-11-06T15:37:49.839Z,27.53
2018-11-06T15:40:20.033Z,23.23
2018-11-06T15:42:48.901Z,30.70
2018-11-06T15:45:18.914Z,22.70
2018-11-06T15:47:48.274Z,21.87
2018-11-06T15:50:18.214Z,29.37
2018-11-06T15:52:48.299Z,21.87
2018-11-06T15:55:17.233Z,23.37
2018-11-06T15:57:46.144Z,25.13
2018-11-06T16:00:19.544Z,27.47
2018-11-06T16:02:49.243Z,26.23
2018-11-06T16:05:18.287Z,24.67
2018-11-06T16:07:47.568Z,30.07
2018-11-06T16:10:18.982Z,26.00
2018-11-06T16:12:48.258Z,26.40
2018-11-06T16:15:17.180Z,29.53
2018-11-06T16:17:46.273Z,32.20
2018-11-06T16:20:17.772Z,30.60
2018-11-06T16:22:46.859Z,31.27
2018-11-06T16:25:17.952Z,32.80
2018-11-06T16:27:47.323Z,30.57
2018-11-06T16:30:20.839Z,27.77
2018-11-06T16:32:49.842Z,30.77
2018-11-06T16:35:20.157Z,32.20
2018-11-06T16:37:49.506Z,37.40
2018-11-06T16:40:18.893Z,36.47
2018-11-06T16:42:48.493Z,30.87
2018-11-06T16:45:19.051Z,35.30
2018-11-06T16:47:48.815Z,32.90
2018-11-06T16:50:18.486Z,31.10
2018-11-06T16:52:47.545Z,31.20
2018-11-06T16:55:17.475Z,33.03
2018-11-06T16:57:47.574Z,30.17
2018-11-06T17:00:18.419Z,34.10
2018-11-06T17:02:47.364Z,30.83
2018-11-06T17:05:16.507Z,30.37
2018-11-06T17:07:45.848Z,27.53
2018-11-06T17:10:15.778Z,33.07
2018-11-06T17:12:44.860Z,32.87
2018-11-06T17:15:16.149Z,32.67
2018-11-06T17:17:45.854Z,25.40
2018-11-06T17:20:15.371Z,27.37
2018-11-06T17:25:15.479Z,28.53
2018-11-06T17:27:44.609Z,30.97
2018-11-06T17:30:16.670Z,27.03
2018-11-06T17:32:45.817Z,32.30
2018-11-06T17:35:16.417Z,31.57
2018-11-06T17:37:45.928Z,34.17
2018-11-06T17:40:16.496Z,27.87
2018-11-06T17:42:45.698Z,31.73
2018-11-06T17:45:16.067Z,28.00
2018-11-06T17:47:45.598Z,34.43
2018-11-06T17:50:15.955Z,33.03
2018-11-06T17:52:45.145Z,29.17
2018-11-06T17:55:16.063Z,34.17
2018-11-06T17:57:45.429Z,38.07
2018-11-06T18:00:20.914Z,32.23
2018-11-06T18:02:50.316Z,29.53
2018-11-06T18:05:21.173Z,34.73
2018-11-06T18:07:50.384Z,39.73
2018-11-06T18:10:20.419Z,40.57
2018-11-06T18:12:50.678Z,43.13
2018-11-06T18:15:19.825Z,36.30
2018-11-06T18:17:49.243Z,36.63
2018-11-06T18:20:19.159Z,44.40
2018-11-06T18:22:48.858Z,40.67
2018-11-06T18:27:48.851Z,46.23
2018-11-06T18:30:18.845Z,49.83
2018-11-06T18:32:48.593Z,51.30
2018-11-06T18:35:18.691Z,49.50
2018-11-06T18:37:47.795Z,49.40
2018-11-06T18:40:19.404Z,49.77
2018-11-06T18:42:50.055Z,55.63
2018-11-06T18:45:19.167Z,50.13
2018-11-06T18:47:49.375Z,44.60
2018-11-06T18:50:21.215Z,44.87
2018-11-06T18:52:52.266Z,47.77
2018-11-06T18:55:21.459Z,47.97
2018-11-06T18:57:50.569Z,37.30
2018-11-06T19:00:21.843Z,40.00
2018-11-06T19:02:52.732Z,35.40
2018-11-06T19:05:22.829Z,36.60
2018-11-06T19:07:51.875Z,32.77
2018-11-06T19:10:22.353Z,36.17
2018-11-06T19:12:51.438Z,35.30
2018-11-06T19:15:23.645Z,37.37
2018-11-06T19:17:54.193Z,35.60
2018-11-06T19:20:23.303Z,34.60
2018-11-06T19:22:54.464Z,37.57
2018-11-06T19:25:24.882Z,31.97
2018-11-06T19:27:54.076Z,39.43
2018-11-06T19:30:23.239Z,38.10
2018-11-06T19:32:52.678Z,35.93
2018-11-06T19:35:23.325Z,31.67
2018-11-06T19:37:58.148Z,35.43
2018-11-06T19:40:28.158Z,39.57
2018-11-06T19:42:57.305Z,40.87
2018-11-06T19:45:27.225Z,38.47
2018-11-06T19:47:57.627Z,32.03
2018-11-06T19:50:26.731Z,35.63
2018-11-06T19:52:56.155Z,34.17
2018-11-06T19:55:26.529Z,37.20
2018-11-06T19:57:55.838Z,33.57
2018-11-06T20:00:26.625Z,39.50
2018-11-06T20:02:56.749Z,35.43
2018-11-06T20:05:26.566Z,35.67
2018-11-06T20:07:55.808Z,37.93
2018-11-06T20:10:25.746Z,37.20
2018-11-06T20:12:55.899Z,37.97
2018-11-06T20:15:24.975Z,32.47
2018-11-06T20:17:54.493Z,36.77
2018-11-06T20:20:26.023Z,32.00
2018-11-06T20:22:55.387Z,34.10
2018-11-06T20:25:24.478Z,39.07
2018-11-06T20:27:53.695Z,36.37
2018-11-06T20:30:24.293Z,36.57
2018-11-06T20:32:53.755Z,37.00
2018-11-06T20:35:24.605Z,33.37
2018-11-06T20:37:54.950Z,37.57
2018-11-06T20:40:27.257Z,40.47
2018-11-06T20:42:58.458Z,39.37
2018-11-06T20:45:28.141Z,38.07
2018-11-06T20:47:57.330Z,41.40
2018-11-06T20:50:26.681Z,37.23
2018-11-06T20:52:56.295Z,37.90
2018-11-06T20:55:25.455Z,36.50
2018-11-06T20:57:54.693Z,37.17
2018-11-06T21:00:26.164Z,36.83
2018-11-06T21:02:56.427Z,36.23
2018-11-06T21:05:26.675Z,43.83
2018-11-06T21:07:56.160Z,40.17
2018-11-06T21:10:26.990Z,39.87
2018-11-06T21:12:56.160Z,41.87
2018-11-06T21:15:25.407Z,41.93
2018-11-06T21:17:54.609Z,38.23
2018-11-06T21:20:24.016Z,42.13
2018-11-06T21:22:53.299Z,38.80
2018-11-06T21:25:22.667Z,39.13
2018-11-06T21:27:51.914Z,38.93
2018-11-06T21:30:22.138Z,43.10
2018-11-06T21:32:52.864Z,41.60
2018-11-06T21:35:23.151Z,40.83
2018-11-06T21:37:52.497Z,41.30
2018-11-06T21:40:22.270Z,48.70
2018-11-06T21:42:52.023Z,44.00
2018-11-06T21:45:22.106Z,44.83
2018-11-06T21:47:51.629Z,42.00
2018-11-06T21:50:21.161Z,40.23
2018-11-06T21:52:50.613Z,44.10
2018-11-06T21:55:20.757Z,47.37
2018-11-06T21:57:53.196Z,41.23
2018-11-06T22:00:22.509Z,45.27
2018-11-06T22:02:51.771Z,50.27
2018-11-06T22:05:22.292Z,49.70
2018-11-06T22:07:51.590Z,57.47
2018-11-06T22:10:21.623Z,51.23
2018-11-06T22:12:50.872Z,55.93
2018-11-06T22:15:20.477Z,53.57
2018-11-06T22:17:49.565Z,58.57
2018-11-06T22:20:19.673Z,58.70
2018-11-06T22:22:49.266Z,61.67
2018-11-06T22:25:18.476Z,57.23
2018-11-06T22:27:48.318Z,68.27
2018-11-06T22:30:17.975Z,65.27
2018-11-06T22:32:47.643Z,65.43
2018-11-06T22:35:17.683Z,56.80
2018-11-06T22:37:46.729Z,56.43
2018-11-06T22:40:16.911Z,59.20
2018-11-06T22:42:46.094Z,46.27
2018-11-06T22:45:16.800Z,51.60
2018-11-06T22:47:46.168Z,55.10
2018-11-06T22:50:16.841Z,48.20
2018-11-06T22:52:46.578Z,49.70
2018-11-06T22:55:15.825Z,47.43
2018-11-06T22:57:45.990Z,55.33
2018-11-06T23:00:17.299Z,47.57
2018-11-06T23:02:46.478Z,54.40
2018-11-06T23:05:16.021Z,51.20
2018-11-06T23:07:50.618Z,53.47
2018-11-06T23:10:19.715Z,56.47
2018-11-06T23:12:48.887Z,60.87
2018-11-06T23:15:18.042Z,59.67
2018-11-06T23:17:47.210Z,70.10
2018-11-06T23:20:16.379Z,61.17
2018-11-06T23:22:45.408Z,58.50
2018-11-06T23:25:14.446Z,57.83
2018-11-06T23:27:43.829Z,68.73
2018-11-06T23:30:15.421Z,65.63
2018-11-06T23:32:44.608Z,58.03
2018-11-06T23:35:13.772Z,64.13
2018-11-06T23:37:42.810Z,60.57
2018-11-06T23:40:12.178Z,62.37
2018-11-06T23:42:41.608Z,64.03
2018-11-06T23:45:10.800Z,66.93
2018-11-06T23:47:39.911Z,59.00
2018-11-06T23:50:09.758Z,61.47
2018-11-06T23:52:38.812Z,60.50
2018-11-06T23:55:07.911Z,59.93
2018-11-06T23:57:36.961Z,56.13
